sensor_id;sensor_type;location;lat;lon;timestamp;temperature;humidity
12233;DHT22;6179;51.748;8.728;2022-09-16T00:00:45;14.20;97.70
12233;DHT22;6179;51.748;8.728;2022-09-16T00:06:46;13.80;98.20
12233;DHT22;6179;51.748;8.728;2022-09-16T00:12:48;13.70;98.30
12233;DHT22;6179;51.748;8.728;2022-09-16T00:18:56;13.90;98.30
12233;DHT22;6179;51.748;8.728;2022-09-16T00:25:00;13.70;98.30
12233;DHT22;6179;51.748;8.728;2022-09-16T00:31:01;13.80;98.30
12233;DHT22;6179;51.748;8.728;2022-09-16T00:37:03;13.60;98.30
12233;DHT22;6179;51.748;8.728;2022-09-16T00:43:09;13.40;98.30
12233;DHT22;6179;51.748;8.728;2022-09-16T00:49:23;13.70;98.30
12233;DHT22;6179;51.748;8.728;2022-09-16T00:55:29;13.70;98.30
12233;DHT22;6179;51.748;8.728;2022-09-16T01:01:34;13.40;98.30
12233;DHT22;6179;51.748;8.728;2022-09-16T01:07:46;13.70;98.30
12233;DHT22;6179;51.748;8.728;2022-09-16T01:13:49;13.80;98.30
12233;DHT22;6179;51.748;8.728;2022-09-16T01:45:18;13.40;98.30
12233;DHT22;6179;51.748;8.728;2022-09-16T01:51:37;13.40;98.30
12233;DHT22;6179;51.748;8.728;2022-09-16T01:58:01;13.70;98.30
12233;DHT22;6179;51.748;8.728;2022-09-16T02:04:21;13.20;98.30
12233;DHT22;6179;51.748;8.728;2022-09-16T02:10:37;13.50;98.30
12233;DHT22;6179;51.748;8.728;2022-09-16T02:22:58;13.30;98.30
12233;DHT22;6179;51.748;8.728;2022-09-16T02:29:10;13.40;98.30
12233;DHT22;6179;51.748;8.728;2022-09-16T02:35:16;13.60;98.30
12233;DHT22;6179;51.748;8.728;2022-09-16T02:41:20;13.60;98.30
12233;DHT22;6179;51.748;8.728;2022-09-16T02:47:45;13.80;98.30
12233;DHT22;6179;51.748;8.728;2022-09-16T02:54:01;13.60;98.30
12233;DHT22;6179;51.748;8.728;2022-09-16T03:00:06;13.40;98.30
12233;DHT22;6179;51.748;8.728;2022-09-16T03:31:31;13.40;98.30
12233;DHT22;6179;51.748;8.728;2022-09-16T03:37:45;13.30;98.30
12233;DHT22;6179;51.748;8.728;2022-09-16T03:43:54;13.10;98.30
12233;DHT22;6179;51.748;8.728;2022-09-16T03:49:56;13.30;98.30
12233;DHT22;6179;51.748;8.728;2022-09-16T03:55:57;13.30;98.30
12233;DHT22;6179;51.748;8.728;2022-09-16T04:01:58;13.20;98.30
12233;DHT22;6179;51.748;8.728;2022-09-16T04:07:59;13.10;98.30
12233;DHT22;6179;51.748;8.728;2022-09-16T04:14:00;12.90;98.30
12233;DHT22;6179;51.748;8.728;2022-09-16T04:20:01;12.60;98.30
12233;DHT22;6179;51.748;8.728;2022-09-16T04:26:02;12.60;98.30
12233;DHT22;6179;51.748;8.728;2022-09-16T04:32:04;12.60;98.30
12233;DHT22;6179;51.748;8.728;2022-09-16T04:38:04;12.70;98.30
12233;DHT22;6179;51.748;8.728;2022-09-16T04:44:05;12.80;98.30
12233;DHT22;6179;51.748;8.728;2022-09-16T04:50:06;12.90;98.30
12233;DHT22;6179;51.748;8.728;2022-09-16T05:02:15;12.90;98.30
12233;DHT22;6179;51.748;8.728;2022-09-16T05:08:16;13.10;98.30
12233;DHT22;6179;51.748;8.728;2022-09-16T05:14:17;12.90;98.30
12233;DHT22;6179;51.748;8.728;2022-09-16T05:20:18;13.00;98.30
12233;DHT22;6179;51.748;8.728;2022-09-16T05:26:22;13.10;98.30
12233;DHT22;6179;51.748;8.728;2022-09-16T05:32:24;12.80;98.30
12233;DHT22;6179;51.748;8.728;2022-09-16T05:38:25;13.20;98.30
12233;DHT22;6179;51.748;8.728;2022-09-16T05:44:26;13.20;98.30
12233;DHT22;6179;51.748;8.728;2022-09-16T05:50:28;13.30;98.30
12233;DHT22;6179;51.748;8.728;2022-09-16T05:56:29;13.40;98.30
12233;DHT22;6179;51.748;8.728;2022-09-16T06:02:30;13.50;98.30
12233;DHT22;6179;51.748;8.728;2022-09-16T06:08:33;13.50;98.30
12233;DHT22;6179;51.748;8.728;2022-09-16T06:14:35;13.10;98.30
12233;DHT22;6179;51.748;8.728;2022-09-16T06:20:36;13.10;98.30
12233;DHT22;6179;51.748;8.728;2022-09-16T06:26:38;13.80;98.30
12233;DHT22;6179;51.748;8.728;2022-09-16T06:32:40;13.70;98.30
12233;DHT22;6179;51.748;8.728;2022-09-16T06:38:41;13.30;98.30
12233;DHT22;6179;51.748;8.728;2022-09-16T06:44:42;13.50;98.30
12233;DHT22;6179;51.748;8.728;2022-09-16T06:50:43;13.40;98.30
12233;DHT22;6179;51.748;8.728;2022-09-16T06:56:44;13.00;98.30
12233;DHT22;6179;51.748;8.728;2022-09-16T07:02:45;13.30;98.30
12233;DHT22;6179;51.748;8.728;2022-09-16T07:08:46;13.40;98.30
12233;DHT22;6179;51.748;8.728;2022-09-16T07:14:53;13.70;98.30
12233;DHT22;6179;51.748;8.728;2022-09-16T07:21:10;13.70;97.20
12233;DHT22;6179;51.748;8.728;2022-09-16T07:27:21;13.90;97.90
12233;DHT22;6179;51.748;8.728;2022-09-16T07:33:22;14.10;95.60
12233;DHT22;6179;51.748;8.728;2022-09-16T07:39:23;14.00;97.10
12233;DHT22;6179;51.748;8.728;2022-09-16T07:45:27;13.50;97.50
12233;DHT22;6179;51.748;8.728;2022-09-16T07:51:28;13.70;97.40
12233;DHT22;6179;51.748;8.728;2022-09-16T07:57:30;13.80;97.50
12233;DHT22;6179;51.748;8.728;2022-09-16T08:03:35;14.50;95.80
12233;DHT22;6179;51.748;8.728;2022-09-16T08:09:37;14.30;96.30
12233;DHT22;6179;51.748;8.728;2022-09-16T08:15:41;14.30;95.00
12233;DHT22;6179;51.748;8.728;2022-09-16T08:21:42;14.10;95.90
12233;DHT22;6179;51.748;8.728;2022-09-16T08:27:43;14.50;96.70
12233;DHT22;6179;51.748;8.728;2022-09-16T08:33:44;14.80;92.50
12233;DHT22;6179;51.748;8.728;2022-09-16T08:39:46;14.60;94.10
12233;DHT22;6179;51.748;8.728;2022-09-16T08:45:54;14.60;92.50
12233;DHT22;6179;51.748;8.728;2022-09-16T08:52:04;14.80;91.90
12233;DHT22;6179;51.748;8.728;2022-09-16T08:58:19;14.70;91.70
12233;DHT22;6179;51.748;8.728;2022-09-16T09:04:22;15.20;90.80
12233;DHT22;6179;51.748;8.728;2022-09-16T09:10:45;15.30;91.50
12233;DHT22;6179;51.748;8.728;2022-09-16T09:30:25;16.00;87.70
12233;DHT22;6179;51.748;8.728;2022-09-16T09:49:47;16.00;84.40
12233;DHT22;6179;51.748;8.728;2022-09-16T09:56:03;16.30;81.90
12233;DHT22;6179;51.748;8.728;2022-09-16T10:02:20;16.00;83.60
12233;DHT22;6179;51.748;8.728;2022-09-16T10:08:26;16.10;84.30
12233;DHT22;6179;51.748;8.728;2022-09-16T10:14:51;16.10;82.30
12233;DHT22;6179;51.748;8.728;2022-09-16T10:21:05;15.90;81.30
12233;DHT22;6179;51.748;8.728;2022-09-16T10:27:30;16.20;80.40
12233;DHT22;6179;51.748;8.728;2022-09-16T10:33:41;17.00;72.80
12233;DHT22;6179;51.748;8.728;2022-09-16T10:39:55;16.80;73.60
12233;DHT22;6179;51.748;8.728;2022-09-16T10:45:58;16.30;76.70
12233;DHT22;6179;51.748;8.728;2022-09-16T10:52:17;16.60;74.70
12233;DHT22;6179;51.748;8.728;2022-09-16T10:58:20;16.70;73.70
12233;DHT22;6179;51.748;8.728;2022-09-16T11:11:14;17.00;75.10
12233;DHT22;6179;51.748;8.728;2022-09-16T11:24:46;17.60;72.40
12233;DHT22;6179;51.748;8.728;2022-09-16T11:57:02;16.70;74.40
12233;DHT22;6179;51.748;8.728;2022-09-16T12:03:21;17.10;72.60
12233;DHT22;6179;51.748;8.728;2022-09-16T12:16:41;17.60;70.30
12233;DHT22;6179;51.748;8.728;2022-09-16T12:23:11;17.70;70.30
12233;DHT22;6179;51.748;8.728;2022-09-16T12:29:22;17.40;70.90
12233;DHT22;6179;51.748;8.728;2022-09-16T12:35:37;18.00;69.50
12233;DHT22;6179;51.748;8.728;2022-09-16T13:01:25;17.80;68.60
12233;DHT22;6179;51.748;8.728;2022-09-16T13:07:51;16.90;74.30
12233;DHT22;6179;51.748;8.728;2022-09-16T13:13:55;15.30;83.30
12233;DHT22;6179;51.748;8.728;2022-09-16T13:20:04;15.10;83.80
12233;DHT22;6179;51.748;8.728;2022-09-16T13:26:14;14.80;85.30
12233;DHT22;6179;51.748;8.728;2022-09-16T13:32:40;14.30;85.90
12233;DHT22;6179;51.748;8.728;2022-09-16T13:39:04;14.60;90.10
12233;DHT22;6179;51.748;8.728;2022-09-16T13:51:40;15.80;84.00
12233;DHT22;6179;51.748;8.728;2022-09-16T13:58:17;16.30;79.00
12233;DHT22;6179;51.748;8.728;2022-09-16T14:18:03;16.90;79.20
12233;DHT22;6179;51.748;8.728;2022-09-16T14:24:16;17.80;76.80
12233;DHT22;6179;51.748;8.728;2022-09-16T14:30:19;17.70;75.00
12233;DHT22;6179;51.748;8.728;2022-09-16T14:36:25;17.70;73.70
12233;DHT22;6179;51.748;8.728;2022-09-16T14:42:30;18.00;72.80
12233;DHT22;6179;51.748;8.728;2022-09-16T14:48:36;17.80;72.40
12233;DHT22;6179;51.748;8.728;2022-09-16T14:54:43;17.70;71.10
12233;DHT22;6179;51.748;8.728;2022-09-16T15:01:09;17.70;72.40
12233;DHT22;6179;51.748;8.728;2022-09-16T15:07:27;17.80;72.50
12233;DHT22;6179;51.748;8.728;2022-09-16T15:13:39;17.30;72.20
12233;DHT22;6179;51.748;8.728;2022-09-16T15:19:57;17.70;73.70
12233;DHT22;6179;51.748;8.728;2022-09-16T15:26:12;17.70;70.30
12233;DHT22;6179;51.748;8.728;2022-09-16T15:32:23;18.00;70.30
12233;DHT22;6179;51.748;8.728;2022-09-16T15:38:28;17.70;70.60
12233;DHT22;6179;51.748;8.728;2022-09-16T15:44:33;17.00;72.10
12233;DHT22;6179;51.748;8.728;2022-09-16T15:50:44;16.50;73.40
12233;DHT22;6179;51.748;8.728;2022-09-16T15:57:01;14.50;85.10
12233;DHT22;6179;51.748;8.728;2022-09-16T16:03:46;14.30;87.10
12233;DHT22;6179;51.748;8.728;2022-09-16T16:09:53;13.70;91.70
12233;DHT22;6179;51.748;8.728;2022-09-16T16:16:00;13.50;91.20
12233;DHT22;6179;51.748;8.728;2022-09-16T16:22:04;13.60;92.10
12233;DHT22;6179;51.748;8.728;2022-09-16T16:28:06;13.80;90.30
12233;DHT22;6179;51.748;8.728;2022-09-16T16:34:07;13.80;89.60
12233;DHT22;6179;51.748;8.728;2022-09-16T16:40:17;14.10;92.10
12233;DHT22;6179;51.748;8.728;2022-09-16T16:46:20;13.60;97.50
12233;DHT22;6179;51.748;8.728;2022-09-16T16:52:21;13.40;98.30
12233;DHT22;6179;51.748;8.728;2022-09-16T16:58:22;13.20;98.30
12233;DHT22;6179;51.748;8.728;2022-09-16T17:04:24;13.10;98.30
12233;DHT22;6179;51.748;8.728;2022-09-16T17:10:25;13.10;98.30
12233;DHT22;6179;51.748;8.728;2022-09-16T17:16:26;13.30;98.30
12233;DHT22;6179;51.748;8.728;2022-09-16T17:22:31;13.40;98.30
12233;DHT22;6179;51.748;8.728;2022-09-16T17:28:32;13.20;98.30
12233;DHT22;6179;51.748;8.728;2022-09-16T17:34:33;13.10;98.30
12233;DHT22;6179;51.748;8.728;2022-09-16T17:40:34;13.20;98.30
12233;DHT22;6179;51.748;8.728;2022-09-16T17:46:41;13.30;98.30
12233;DHT22;6179;51.748;8.728;2022-09-16T17:52:46;13.10;98.30
12233;DHT22;6179;51.748;8.728;2022-09-16T17:58:50;13.30;98.30
12233;DHT22;6179;51.748;8.728;2022-09-16T18:04:52;13.30;98.30
12233;DHT22;6179;51.748;8.728;2022-09-16T18:10:56;13.30;98.30
12233;DHT22;6179;51.748;8.728;2022-09-16T18:17:03;13.40;98.30
12233;DHT22;6179;51.748;8.728;2022-09-16T18:23:13;13.10;98.30
12233;DHT22;6179;51.748;8.728;2022-09-16T18:29:20;13.40;98.30
12233;DHT22;6179;51.748;8.728;2022-09-16T18:35:24;13.60;98.30
12233;DHT22;6179;51.748;8.728;2022-09-16T18:41:33;13.40;98.30
12233;DHT22;6179;51.748;8.728;2022-09-16T18:47:36;13.40;98.30
12233;DHT22;6179;51.748;8.728;2022-09-16T18:53:37;13.50;97.90
12233;DHT22;6179;51.748;8.728;2022-09-16T18:59:41;13.30;98.00
12233;DHT22;6179;51.748;8.728;2022-09-16T19:05:53;13.20;97.50
12233;DHT22;6179;51.748;8.728;2022-09-16T19:11:54;13.10;96.50
12233;DHT22;6179;51.748;8.728;2022-09-16T19:18:00;13.40;95.50
12233;DHT22;6179;51.748;8.728;2022-09-16T19:24:03;13.30;96.60
12233;DHT22;6179;51.748;8.728;2022-09-16T19:30:07;12.60;97.90
12233;DHT22;6179;51.748;8.728;2022-09-16T19:36:17;12.90;97.00
12233;DHT22;6179;51.748;8.728;2022-09-16T19:42:19;12.90;97.10
12233;DHT22;6179;51.748;8.728;2022-09-16T19:48:25;13.00;96.50
12233;DHT22;6179;51.748;8.728;2022-09-16T19:54:34;13.30;94.70
12233;DHT22;6179;51.748;8.728;2022-09-16T20:00:35;13.10;95.00
12233;DHT22;6179;51.748;8.728;2022-09-16T20:06:38;12.80;98.30
12233;DHT22;6179;51.748;8.728;2022-09-16T20:12:43;13.00;98.30
12233;DHT22;6179;51.748;8.728;2022-09-16T20:18:48;12.50;98.30
12233;DHT22;6179;51.748;8.728;2022-09-16T20:24:49;12.80;98.30
12233;DHT22;6179;51.748;8.728;2022-09-16T20:30:50;12.80;98.30
12233;DHT22;6179;51.748;8.728;2022-09-16T20:36:51;12.40;98.30
12233;DHT22;6179;51.748;8.728;2022-09-16T20:42:52;12.80;98.30
12233;DHT22;6179;51.748;8.728;2022-09-16T20:48:57;12.70;98.30
12233;DHT22;6179;51.748;8.728;2022-09-16T20:54:59;12.70;98.30
12233;DHT22;6179;51.748;8.728;2022-09-16T21:01:19;12.10;98.30
12233;DHT22;6179;51.748;8.728;2022-09-16T21:07:23;12.10;98.30
12233;DHT22;6179;51.748;8.728;2022-09-16T21:13:24;12.30;98.30
12233;DHT22;6179;51.748;8.728;2022-09-16T21:19:25;12.00;98.30
12233;DHT22;6179;51.748;8.728;2022-09-16T21:25:25;11.90;98.30
12233;DHT22;6179;51.748;8.728;2022-09-16T21:31:28;12.20;98.30
12233;DHT22;6179;51.748;8.728;2022-09-16T21:37:32;11.60;98.30
12233;DHT22;6179;51.748;8.728;2022-09-16T21:43:37;11.20;98.30
12233;DHT22;6179;51.748;8.728;2022-09-16T21:49:44;11.50;98.30
12233;DHT22;6179;51.748;8.728;2022-09-16T21:55:49;11.50;98.30
12233;DHT22;6179;51.748;8.728;2022-09-16T22:01:50;11.60;98.30
12233;DHT22;6179;51.748;8.728;2022-09-16T22:07:51;11.70;98.30
12233;DHT22;6179;51.748;8.728;2022-09-16T22:13:53;11.50;98.30
12233;DHT22;6179;51.748;8.728;2022-09-16T22:19:55;11.30;98.30
12233;DHT22;6179;51.748;8.728;2022-09-16T22:25:56;11.40;98.30
12233;DHT22;6179;51.748;8.728;2022-09-16T22:31:57;11.70;98.30
12233;DHT22;6179;51.748;8.728;2022-09-16T22:37:57;11.30;98.30
12233;DHT22;6179;51.748;8.728;2022-09-16T22:43:58;11.20;98.30
12233;DHT22;6179;51.748;8.728;2022-09-16T22:50:00;11.20;98.30
12233;DHT22;6179;51.748;8.728;2022-09-16T22:56:06;11.20;98.30
12233;DHT22;6179;51.748;8.728;2022-09-16T23:02:09;11.30;98.30
12233;DHT22;6179;51.748;8.728;2022-09-16T23:08:10;11.40;98.30
12233;DHT22;6179;51.748;8.728;2022-09-16T23:14:15;11.60;98.30
12233;DHT22;6179;51.748;8.728;2022-09-16T23:20:21;11.60;98.30
12233;DHT22;6179;51.748;8.728;2022-09-16T23:26:24;11.40;98.30
12233;DHT22;6179;51.748;8.728;2022-09-16T23:32:27;11.40;98.30
12233;DHT22;6179;51.748;8.728;2022-09-16T23:38:28;11.60;98.30
12233;DHT22;6179;51.748;8.728;2022-09-16T23:44:29;11.60;98.30
12233;DHT22;6179;51.748;8.728;2022-09-16T23:50:30;11.50;98.30
12233;DHT22;6179;51.748;8.728;2022-09-16T23:56:31;11.60;98.30
